createdAt,value
2019-02-16T00:00:22.155Z,2.67
2019-02-16T00:02:50.837Z,2.65
2019-02-16T00:05:19.461Z,2.65
2019-02-16T00:07:48.030Z,2.61
2019-02-16T00:10:16.625Z,2.61
2019-02-16T00:12:45.130Z,2.57
2019-02-16T00:15:13.838Z,2.57
2019-02-16T00:17:42.517Z,2.53
2019-02-16T00:20:11.229Z,2.46
2019-02-16T00:22:39.865Z,2.45
2019-02-16T00:25:08.533Z,2.45
2019-02-16T00:27:37.095Z,2.43
2019-02-16T00:30:07.022Z,2.43
2019-02-16T00:32:38.591Z,2.35
2019-02-16T00:35:07.248Z,2.34
2019-02-16T00:37:35.808Z,2.35
2019-02-16T00:40:06.769Z,2.30
2019-02-16T00:42:35.271Z,2.30
2019-02-16T00:45:04.920Z,2.24
2019-02-16T00:47:33.544Z,2.21
2019-02-16T00:50:02.190Z,2.21
2019-02-16T00:52:30.676Z,2.14
2019-02-16T00:54:59.275Z,2.14
2019-02-16T00:57:27.910Z,2.14
2019-02-16T00:59:56.467Z,2.06
2019-02-16T01:02:25.136Z,2.07
2019-02-16T01:04:53.661Z,2.05
2019-02-16T01:07:22.217Z,2.05
2019-02-16T01:09:50.884Z,2.09
2019-02-16T01:12:19.453Z,2.09
2019-02-16T01:14:48.091Z,2.02
2019-02-16T01:17:16.616Z,2.03
2019-02-16T01:19:45.232Z,2.03
2019-02-16T01:22:13.832Z,2.02
2019-02-16T01:24:42.566Z,2.00
2019-02-16T01:27:11.100Z,2.00
2019-02-16T01:29:39.731Z,1.99
2019-02-16T01:32:08.322Z,1.94
2019-02-16T01:34:36.894Z,1.96
2019-02-16T01:37:05.536Z,1.94
2019-02-16T01:39:34.202Z,1.94
2019-02-16T01:42:02.762Z,1.95
2019-02-16T01:44:31.326Z,1.95
2019-02-16T01:46:59.938Z,1.92
2019-02-16T01:49:28.491Z,1.92
2019-02-16T01:51:57.091Z,1.92
2019-02-16T01:54:25.687Z,1.88
2019-02-16T01:56:54.348Z,1.94
2019-02-16T01:59:22.973Z,1.93
2019-02-16T02:01:51.503Z,1.93
2019-02-16T02:04:20.093Z,1.90
2019-02-16T02:06:48.726Z,1.89
2019-02-16T02:09:17.468Z,1.87
2019-02-16T02:11:45.957Z,1.87
2019-02-16T02:14:14.456Z,1.87
2019-02-16T02:16:43.099Z,1.84
2019-02-16T02:19:11.743Z,1.84
2019-02-16T02:21:41.473Z,1.83
2019-02-16T02:24:10.131Z,1.83
2019-02-16T02:26:38.691Z,1.79
2019-02-16T02:29:07.286Z,1.81
2019-02-16T02:31:37.523Z,1.71
2019-02-16T02:34:07.881Z,1.71
2019-02-16T02:36:36.379Z,1.73
2019-02-16T02:39:05.855Z,1.73
2019-02-16T02:41:34.492Z,1.69
2019-02-16T02:44:03.260Z,1.69
2019-02-16T02:46:32.782Z,1.63
2019-02-16T02:49:01.269Z,1.57
2019-02-16T02:51:29.909Z,1.57
2019-02-16T02:53:58.508Z,1.49
2019-02-16T02:56:26.986Z,1.45
2019-02-16T02:58:55.557Z,1.42
2019-02-16T03:01:24.289Z,1.42
2019-02-16T03:03:53.117Z,1.40
2019-02-16T03:06:21.831Z,1.40
2019-02-16T03:08:50.444Z,1.41
2019-02-16T03:11:18.999Z,1.41
2019-02-16T03:13:47.627Z,1.41
2019-02-16T03:16:16.288Z,1.39
2019-02-16T03:18:44.773Z,1.37
2019-02-16T03:21:13.423Z,1.36
2019-02-16T03:23:41.966Z,1.36
2019-02-16T03:26:16.454Z,1.36
2019-02-16T03:28:53.826Z,1.33
2019-02-16T03:31:37.162Z,1.32
2019-02-16T03:34:08.740Z,1.34
2019-02-16T03:36:49.223Z,1.32
2019-02-16T03:39:17.812Z,1.37
2019-02-16T03:41:46.378Z,1.37
2019-02-16T03:44:15.021Z,1.37
2019-02-16T03:46:43.736Z,1.36
2019-02-16T03:49:12.292Z,1.36
2019-02-16T03:51:40.924Z,1.36
2019-02-16T03:54:09.510Z,1.35
2019-02-16T03:56:37.995Z,1.34
2019-02-16T03:59:06.627Z,1.34
2019-02-16T04:01:35.226Z,1.34
2019-02-16T04:04:03.856Z,1.34
2019-02-16T04:06:32.468Z,1.33
2019-02-16T04:09:01.130Z,1.31
2019-02-16T04:11:29.688Z,1.30
2019-02-16T04:13:58.316Z,1.27
2019-02-16T04:16:26.851Z,1.28
2019-02-16T04:18:55.486Z,1.28
2019-02-16T04:21:24.052Z,1.28
2019-02-16T04:23:52.651Z,1.24
2019-02-16T04:26:21.286Z,1.24
2019-02-16T04:28:49.850Z,1.21
2019-02-16T04:31:18.539Z,1.21
2019-02-16T04:33:47.127Z,1.19
2019-02-16T04:36:15.666Z,1.19
2019-02-16T04:38:44.252Z,1.16
2019-02-16T04:41:12.843Z,1.18
2019-02-16T04:43:41.406Z,1.16
2019-02-16T04:46:09.999Z,1.16
2019-02-16T04:48:38.547Z,1.12
2019-02-16T04:51:07.032Z,1.11
2019-02-16T04:53:35.623Z,1.11
2019-02-16T04:56:04.189Z,1.11
2019-02-16T04:58:32.687Z,1.12
2019-02-16T05:01:01.289Z,1.13
2019-02-16T05:03:29.773Z,1.09
2019-02-16T05:05:59.793Z,1.08
2019-02-16T05:08:28.716Z,1.07
2019-02-16T05:10:57.359Z,1.08
2019-02-16T05:13:25.908Z,1.05
2019-02-16T05:15:54.496Z,1.05
2019-02-16T05:18:22.995Z,1.04
2019-02-16T05:20:51.621Z,1.05
2019-02-16T05:23:20.145Z,1.05
2019-02-16T05:25:50.915Z,1.04
2019-02-16T05:28:19.020Z,1.04
2019-02-16T05:30:47.608Z,1.04
2019-02-16T05:33:16.225Z,1.03
2019-02-16T05:35:44.855Z,1.03
2019-02-16T05:38:13.461Z,1.04
2019-02-16T05:40:42.084Z,1.04
2019-02-16T05:43:10.836Z,1.04
2019-02-16T05:45:39.599Z,0.99
2019-02-16T05:48:08.164Z,1.03
2019-02-16T05:50:36.747Z,1.04
2019-02-16T05:53:05.365Z,1.05
2019-02-16T05:55:33.929Z,1.07
2019-02-16T05:58:02.597Z,1.12
2019-02-16T06:00:32.098Z,1.13
2019-02-16T06:03:00.598Z,1.20
2019-02-16T06:05:29.160Z,1.24
2019-02-16T06:07:57.740Z,1.24
2019-02-16T06:10:27.944Z,1.35
2019-02-16T06:12:56.482Z,1.42
2019-02-16T06:15:25.135Z,1.51
2019-02-16T06:17:53.636Z,1.56
2019-02-16T06:20:23.826Z,1.56
2019-02-16T06:22:52.384Z,1.61
2019-02-16T06:25:20.963Z,1.67
2019-02-16T06:27:49.519Z,1.74
2019-02-16T06:30:18.068Z,1.85
2019-02-16T06:32:46.946Z,1.88
2019-02-16T06:35:17.150Z,1.88
2019-02-16T06:37:45.674Z,1.99
2019-02-16T06:40:14.184Z,1.99
2019-02-16T06:42:42.685Z,2.12
2019-02-16T06:45:11.336Z,2.12
2019-02-16T06:47:39.978Z,2.23
2019-02-16T06:50:08.618Z,2.35
2019-02-16T06:52:37.140Z,2.43
2019-02-16T06:55:06.180Z,2.54
2019-02-16T06:57:34.663Z,2.57
2019-02-16T07:00:04.201Z,2.66
2019-02-16T07:02:32.775Z,2.86
2019-02-16T07:05:01.273Z,3.03
2019-02-16T07:07:29.863Z,3.03
2019-02-16T07:10:03.030Z,3.44
2019-02-16T07:12:31.520Z,3.53
2019-02-16T07:15:00.360Z,3.72
2019-02-16T07:17:39.441Z,3.86
2019-02-16T07:20:11.641Z,4.07
2019-02-16T07:22:40.255Z,4.07
2019-02-16T07:25:08.897Z,4.33
2019-02-16T07:27:37.433Z,4.33
2019-02-16T07:30:08.999Z,4.49
2019-02-16T07:32:37.719Z,4.71
2019-02-16T07:35:11.237Z,4.65
2019-02-16T07:37:41.404Z,4.64
2019-02-16T07:40:10.074Z,4.91
2019-02-16T07:42:49.329Z,5.13
2019-02-16T07:45:21.397Z,5.19
2019-02-16T07:47:53.078Z,5.39
2019-02-16T07:50:25.703Z,5.75
2019-02-16T07:52:55.947Z,5.75
2019-02-16T07:55:38.385Z,5.78
2019-02-16T07:58:08.651Z,5.73
2019-02-16T08:00:44.668Z,6.17
2019-02-16T08:03:14.852Z,6.02
2019-02-16T08:05:47.762Z,5.94
2019-02-16T08:08:29.790Z,5.77
2019-02-16T08:11:05.845Z,6.06
2019-02-16T08:13:52.488Z,6.40
2019-02-16T08:16:22.751Z,6.33
2019-02-16T08:18:59.169Z,6.66
2019-02-16T08:21:38.410Z,6.64
2019-02-16T08:24:11.653Z,6.58
2019-02-16T08:26:56.796Z,6.42
2019-02-16T08:29:43.419Z,6.81
2019-02-16T08:32:29.787Z,7.33
2019-02-16T08:34:59.954Z,7.55
2019-02-16T08:37:46.427Z,8.07
2019-02-16T08:40:19.746Z,7.84
2019-02-16T08:43:05.064Z,8.13
2019-02-16T08:45:47.621Z,8.54
2019-02-16T08:48:20.524Z,8.73
2019-02-16T08:50:59.610Z,8.73
2019-02-16T08:53:29.813Z,8.88
2019-02-16T08:56:06.038Z,8.89
2019-02-16T08:58:44.832Z,9.18
2019-02-16T09:01:27.435Z,9.16
2019-02-16T09:03:57.371Z,9.25
2019-02-16T09:06:36.317Z,9.83
2019-02-16T09:09:07.487Z,9.77
2019-02-16T09:11:37.749Z,9.45
2019-02-16T09:14:14.141Z,9.91
2019-02-16T09:17:05.021Z,9.83
2019-02-16T09:19:37.765Z,9.31
2019-02-16T09:22:08.024Z,9.11
2019-02-16T09:24:54.254Z,8.86
2019-02-16T09:27:39.471Z,8.95
2019-02-16T09:30:12.373Z,9.40
2019-02-16T09:32:57.618Z,9.85
2019-02-16T09:35:40.125Z,10.10
2019-02-16T09:38:10.399Z,10.99
2019-02-16T09:40:55.712Z,10.62
2019-02-16T09:43:25.842Z,10.52
2019-02-16T09:45:58.793Z,11.40
2019-02-16T09:48:44.014Z,11.27
2019-02-16T09:51:16.831Z,11.38
2019-02-16T09:54:07.958Z,11.33
2019-02-16T09:56:32.958Z,11.69
2019-02-16T09:59:03.193Z,11.64
2019-02-16T10:01:42.533Z,11.67
2019-02-16T10:04:15.629Z,11.90
2019-02-16T10:06:54.635Z,12.28
2019-02-16T10:09:24.911Z,12.21
2019-02-16T10:11:57.817Z,12.11
2019-02-16T10:14:36.841Z,11.37
2019-02-16T10:17:16.043Z,11.90
2019-02-16T10:19:46.199Z,13.05
2019-02-16T10:22:22.091Z,13.50
2019-02-16T10:25:03.955Z,14.12
2019-02-16T10:27:34.230Z,14.21
2019-02-16T10:30:04.505Z,14.08
2019-02-16T10:32:50.322Z,14.44
2019-02-16T10:35:37.027Z,14.23
2019-02-16T10:38:25.134Z,14.34
2019-02-16T10:41:11.265Z,14.44
2019-02-16T10:43:50.804Z,12.95
2019-02-16T10:46:38.435Z,13.80
2019-02-16T10:49:08.757Z,14.41
2019-02-16T10:51:50.901Z,14.51
2019-02-16T10:54:29.609Z,15.20
2019-02-16T10:57:17.169Z,15.51
2019-02-16T10:59:49.930Z,14.10
2019-02-16T11:02:20.117Z,14.42
2019-02-16T11:04:57.029Z,14.28
2019-02-16T11:07:29.932Z,14.65
2019-02-16T11:10:03.195Z,14.51
2019-02-16T11:12:33.489Z,14.42
2019-02-16T11:15:21.003Z,14.60
2019-02-16T11:17:55.830Z,15.05
2019-02-16T11:20:50.736Z,15.95
2019-02-16T11:23:21.011Z,16.56
2019-02-16T11:25:51.210Z,16.73
2019-02-16T11:28:24.093Z,16.94
2019-02-16T11:30:56.700Z,17.08
2019-02-16T11:33:26.975Z,16.11
2019-02-16T11:36:13.461Z,15.62
2019-02-16T11:39:03.989Z,16.93
2019-02-16T11:41:34.315Z,16.16
2019-02-16T11:44:04.589Z,15.66
2019-02-16T11:46:37.443Z,15.54
2019-02-16T11:49:13.530Z,16.81
2019-02-16T11:51:44.900Z,16.46
2019-02-16T11:54:28.897Z,16.79
2019-02-16T11:57:03.412Z,17.22
2019-02-16T11:59:37.351Z,18.55
2019-02-16T12:05:10.420Z,19.02
2019-02-16T12:07:43.872Z,19.04
2019-02-16T12:10:14.771Z,18.41
2019-02-16T12:12:56.989Z,19.01
2019-02-16T12:15:41.404Z,20.29
2019-02-16T12:18:27.918Z,20.75
2019-02-16T12:20:58.193Z,21.35
2019-02-16T12:23:46.074Z,20.34
2019-02-16T12:26:21.970Z,19.47
2019-02-16T12:28:59.374Z,18.33
2019-02-16T12:31:31.096Z,18.88
2019-02-16T12:34:10.105Z,19.04
2019-02-16T12:36:43.086Z,18.96
2019-02-16T12:39:20.581Z,19.33
2019-02-16T12:42:10.512Z,18.58
2019-02-16T12:44:40.730Z,18.92
2019-02-16T12:47:13.816Z,19.58
2019-02-16T12:49:52.942Z,19.17
2019-02-16T12:52:39.538Z,18.39
2019-02-16T12:55:18.940Z,17.64
2019-02-16T12:57:51.298Z,17.12
2019-02-16T13:00:30.209Z,16.75
2019-02-16T13:03:06.076Z,16.61
2019-02-16T13:05:52.601Z,15.84
2019-02-16T13:08:28.795Z,15.13
2019-02-16T13:11:05.050Z,15.57
2019-02-16T13:13:40.684Z,16.56
2019-02-16T13:16:10.991Z,16.94
2019-02-16T13:18:57.407Z,17.95
2019-02-16T13:21:27.723Z,15.96
2019-02-16T13:24:07.099Z,17.39
2019-02-16T13:26:43.149Z,17.80
2019-02-16T13:29:24.908Z,19.31
2019-02-16T13:32:07.139Z,19.98
2019-02-16T13:34:53.531Z,20.28
2019-02-16T13:37:29.513Z,19.56
2019-02-16T13:39:59.703Z,19.37
2019-02-16T13:42:29.915Z,19.88
2019-02-16T13:45:16.381Z,20.33
2019-02-16T13:47:55.173Z,20.65
2019-02-16T13:50:28.009Z,21.22
2019-02-16T13:53:03.774Z,20.36
2019-02-16T13:55:36.849Z,19.00
2019-02-16T13:58:09.704Z,18.06
2019-02-16T14:00:46.015Z,18.25
2019-02-16T14:03:18.959Z,17.54
2019-02-16T14:05:49.235Z,17.70
2019-02-16T14:08:35.583Z,17.29
2019-02-16T14:11:05.795Z,16.12
2019-02-16T14:13:53.963Z,16.92
2019-02-16T14:16:24.244Z,17.00
2019-02-16T14:18:52.925Z,15.08
2019-02-16T14:21:21.607Z,15.86
2019-02-16T14:23:50.121Z,16.71
2019-02-16T14:26:18.664Z,16.88
2019-02-16T14:28:48.537Z,17.25
2019-02-16T14:31:28.281Z,17.40
2019-02-16T14:33:53.301Z,17.20
2019-02-16T14:36:23.337Z,16.78
2019-02-16T14:38:56.298Z,16.20
2019-02-16T14:41:26.393Z,15.16
2019-02-16T14:43:54.967Z,14.53
2019-02-16T14:46:23.591Z,12.95
2019-02-16T14:48:52.273Z,12.86
2019-02-16T14:51:20.846Z,13.21
2019-02-16T14:53:50.870Z,13.75
2019-02-16T14:56:19.472Z,13.57
2019-02-16T14:58:49.714Z,13.44
2019-02-16T15:01:19.977Z,13.25
2019-02-16T15:03:50.192Z,13.35
2019-02-16T15:06:20.373Z,13.47
2019-02-16T15:08:50.727Z,14.06
2019-02-16T15:11:21.018Z,14.68
2019-02-16T15:13:51.235Z,15.07
2019-02-16T15:16:21.442Z,15.28
2019-02-16T15:18:51.579Z,15.49
2019-02-16T15:21:21.580Z,15.51
2019-02-16T15:23:51.876Z,15.95
2019-02-16T15:26:28.322Z,16.37
2019-02-16T15:28:54.080Z,16.12
2019-02-16T15:31:22.645Z,15.79
2019-02-16T15:33:51.276Z,15.32
2019-02-16T15:36:23.958Z,15.05
2019-02-16T15:38:51.698Z,14.55
2019-02-16T15:41:23.954Z,13.77
2019-02-16T15:43:52.442Z,12.90
2019-02-16T15:46:25.689Z,12.74
2019-02-16T15:48:54.512Z,12.31
2019-02-16T15:51:24.680Z,11.81
2019-02-16T15:53:55.731Z,11.74
2019-02-16T15:56:24.649Z,11.59
2019-02-16T15:58:53.571Z,11.35
2019-02-16T16:01:23.807Z,11.19
2019-02-16T16:03:52.487Z,11.03
2019-02-16T16:06:24.101Z,10.69
2019-02-16T16:08:56.744Z,10.41
2019-02-16T16:11:31.226Z,10.21
2019-02-16T16:14:04.037Z,10.09
2019-02-16T16:16:37.254Z,9.97
2019-02-16T16:19:17.981Z,9.91
2019-02-16T16:21:51.218Z,9.70
2019-02-16T16:24:24.010Z,9.58
2019-02-16T16:26:56.829Z,9.54
2019-02-16T16:29:43.374Z,9.45
2019-02-16T16:32:29.879Z,9.35
2019-02-16T16:35:02.889Z,9.27
2019-02-16T16:37:35.820Z,9.22
2019-02-16T16:40:06.655Z,9.16
2019-02-16T16:42:39.700Z,9.10
2019-02-16T16:45:28.081Z,9.06
2019-02-16T16:48:13.471Z,9.02
2019-02-16T16:50:43.666Z,8.96
2019-02-16T16:53:23.010Z,8.87
2019-02-16T16:56:03.210Z,8.81
2019-02-16T16:58:45.448Z,8.81
2019-02-16T17:01:32.062Z,8.74
2019-02-16T17:04:02.323Z,8.61
2019-02-16T17:06:49.711Z,8.56
2019-02-16T17:09:20.912Z,8.44
2019-02-16T17:11:57.014Z,8.32
2019-02-16T17:14:42.332Z,8.25
2019-02-16T17:17:19.024Z,8.18
2019-02-16T17:19:52.640Z,8.04
2019-02-16T17:22:33.025Z,7.96
2019-02-16T17:25:04.681Z,7.82
2019-02-16T17:27:40.963Z,7.74
2019-02-16T17:30:16.568Z,7.66
2019-02-16T17:32:59.940Z,7.61
2019-02-16T17:35:38.874Z,7.53
2019-02-16T17:38:17.942Z,7.48
2019-02-16T17:40:51.862Z,7.44
2019-02-16T17:43:25.049Z,7.38
2019-02-16T17:46:02.859Z,7.33
2019-02-16T17:48:42.108Z,7.31
2019-02-16T17:51:12.508Z,7.20
2019-02-16T17:53:47.056Z,7.20
2019-02-16T17:56:17.766Z,7.12
2019-02-16T17:58:49.472Z,7.11
2019-02-16T18:01:33.096Z,7.07
2019-02-16T18:04:15.150Z,7.03
2019-02-16T18:06:51.584Z,6.99
2019-02-16T18:09:38.181Z,6.92
2019-02-16T18:12:26.776Z,6.89
2019-02-16T18:14:57.005Z,6.85
2019-02-16T18:17:36.369Z,6.79
2019-02-16T18:20:07.286Z,6.82
2019-02-16T18:22:55.626Z,6.82
2019-02-16T18:25:28.403Z,6.84
2019-02-16T18:28:13.917Z,6.80
2019-02-16T18:30:56.215Z,6.75
2019-02-16T18:33:26.422Z,6.72
2019-02-16T18:35:59.169Z,6.69
2019-02-16T18:38:32.165Z,6.65
2019-02-16T18:41:02.322Z,6.67
2019-02-16T18:43:35.311Z,6.64
2019-02-16T18:46:09.566Z,6.57
2019-02-16T18:48:43.282Z,6.57
2019-02-16T18:51:25.797Z,6.54
2019-02-16T18:53:56.163Z,6.54
2019-02-16T18:56:42.667Z,6.48
2019-02-16T18:59:27.703Z,6.48
2019-02-16T19:02:03.813Z,6.47
2019-02-16T19:04:47.353Z,6.44
2019-02-16T19:07:17.661Z,6.40
2019-02-16T19:09:57.025Z,6.40
2019-02-16T19:12:27.265Z,6.37
2019-02-16T19:15:01.981Z,6.35
2019-02-16T19:17:34.547Z,6.32
2019-02-16T19:20:16.768Z,6.31
2019-02-16T19:22:52.865Z,6.28
2019-02-16T19:25:29.211Z,6.25
2019-02-16T19:27:59.525Z,6.24
2019-02-16T19:30:36.840Z,6.26
2019-02-16T19:33:07.146Z,6.23
2019-02-16T19:35:37.451Z,6.22
2019-02-16T19:38:08.028Z,6.15
2019-02-16T19:40:44.057Z,6.05
2019-02-16T19:43:19.784Z,6.05
2019-02-16T19:45:52.483Z,5.80
2019-02-16T19:48:42.761Z,5.80
2019-02-16T19:51:23.209Z,5.65
2019-02-16T19:53:53.368Z,5.61
2019-02-16T19:56:26.222Z,5.59
2019-02-16T19:59:00.372Z,5.54
2019-02-16T20:01:48.077Z,5.56
2019-02-16T20:04:33.626Z,5.60
2019-02-16T20:07:03.820Z,5.62
2019-02-16T20:09:39.841Z,5.61
2019-02-16T20:12:11.516Z,5.53
2019-02-16T20:14:41.719Z,5.44
2019-02-16T20:17:11.883Z,5.37
2019-02-16T20:19:47.986Z,5.33
2019-02-16T20:22:18.355Z,5.34
2019-02-16T20:24:48.647Z,5.30
2019-02-16T20:27:21.395Z,5.28
2019-02-16T20:29:55.741Z,5.26
2019-02-16T20:32:31.824Z,5.23
2019-02-16T20:35:02.085Z,5.19
2019-02-16T20:37:33.786Z,5.15
2019-02-16T20:40:16.058Z,5.11
2019-02-16T20:42:46.472Z,5.09
2019-02-16T20:45:22.547Z,5.07
2019-02-16T20:47:54.228Z,5.04
2019-02-16T20:50:40.706Z,5.05
2019-02-16T20:53:13.190Z,5.06
2019-02-16T20:55:48.040Z,5.09
2019-02-16T20:58:18.264Z,5.08
2019-02-16T21:00:48.535Z,5.06
2019-02-16T21:03:28.992Z,5.02
2019-02-16T21:06:14.221Z,5.01
2019-02-16T21:09:00.551Z,4.98
2019-02-16T21:11:36.720Z,4.97
2019-02-16T21:14:20.158Z,4.97
2019-02-16T21:16:58.327Z,4.98
2019-02-16T21:19:28.513Z,4.97
2019-02-16T21:22:14.591Z,4.99
2019-02-16T21:24:50.409Z,4.99
2019-02-16T21:27:22.153Z,5.01
2019-02-16T21:29:54.214Z,4.97
2019-02-16T21:32:27.349Z,4.93
2019-02-16T21:35:03.236Z,4.88
2019-02-16T21:37:49.544Z,4.83
2019-02-16T21:40:25.504Z,4.81
2019-02-16T21:43:00.095Z,4.78
2019-02-16T21:45:41.978Z,4.75
2019-02-16T21:48:23.927Z,4.71
2019-02-16T21:50:54.070Z,4.65
2019-02-16T21:53:27.164Z,4.60
2019-02-16T21:56:10.207Z,4.59
2019-02-16T21:58:47.841Z,4.60
2019-02-16T22:01:19.614Z,4.58
2019-02-16T22:03:52.742Z,4.59
2019-02-16T22:06:23.509Z,4.61
2019-02-16T22:08:54.647Z,4.59
2019-02-16T22:11:38.328Z,4.61
2019-02-16T22:14:06.975Z,4.65
2019-02-16T22:16:38.696Z,4.58
2019-02-16T22:19:11.155Z,4.58
2019-02-16T22:21:39.716Z,4.52
2019-02-16T22:24:10.046Z,4.44
2019-02-16T22:26:38.607Z,4.37
2019-02-16T22:29:09.641Z,4.37
2019-02-16T22:31:41.356Z,4.40
2019-02-16T22:34:11.451Z,4.30
2019-02-16T22:36:45.225Z,4.30
2019-02-16T22:39:13.695Z,4.31
2019-02-16T22:41:43.796Z,4.28
2019-02-16T22:44:17.634Z,4.21
2019-02-16T22:46:48.599Z,4.25
2019-02-16T22:49:17.170Z,4.19
2019-02-16T22:51:47.359Z,4.18
2019-02-16T22:54:16.246Z,4.16
2019-02-16T22:56:44.814Z,4.10
2019-02-16T22:59:16.131Z,4.13
2019-02-16T23:01:47.849Z,4.13
2019-02-16T23:04:18.047Z,4.10
2019-02-16T23:06:46.693Z,4.08
2019-02-16T23:09:28.479Z,4.07
2019-02-16T23:11:57.190Z,4.07
2019-02-16T23:14:28.045Z,4.13
2019-02-16T23:16:56.767Z,4.09
2019-02-16T23:19:27.129Z,4.09
2019-02-16T23:21:57.301Z,4.04
2019-02-16T23:24:27.945Z,4.01
2019-02-16T23:26:58.047Z,4.04
2019-02-16T23:29:28.239Z,4.01
2019-02-16T23:31:57.365Z,4.01
2019-02-16T23:34:29.094Z,4.07
2019-02-16T23:36:57.727Z,4.11
2019-02-16T23:39:28.031Z,4.18
2019-02-16T23:42:00.367Z,4.16
2019-02-16T23:44:29.300Z,4.13
2019-02-16T23:46:57.919Z,4.13
2019-02-16T23:49:26.761Z,4.05
2019-02-16T23:51:56.439Z,4.05
2019-02-16T23:54:25.080Z,4.06
2019-02-16T23:56:53.706Z,4.03
2019-02-16T23:59:23.970Z,4.00
